In Rescue
 
Open Full Screen Window  High Contrast Mode
Wind Gusting 22 knots
13
October 25, 2021 4:49 PM EDT
Present Weather: Mist
Weather Information
Wind Direction
  360 °
Wind Speed
  13 kt (15 mph)
Wind Gust
  22 kt (25 mph)
Altimeter
29.82 in
Visibility
4 SM
Temperature
08° C
46° F
Dewpoint
08° C
46° F
Humidity
100%
1hr Rain Fall
00.01 in.
24hr Rain Fall
00.39 in.
Sky Condition
Overcast @ 1,100 ft
MVFR

METAR KIRS 252049Z AUTO 36013G22KT 4SM BR OVC011 08/08 A2982 RMK AO2 T00800076 P0001

FAA Disclaimer: The data displayed is for advisory purposes only and is not to be used for flight planning or operations.